<?xml version="1.0" encoding="UTF-8" standalone="no" ?>
<gpx xmlns="http://www.topografix.com/GPX/1/1" xmlns:xsi="http://www.w3.org/2001/XMLSchema-instance" xsi:schemaLocation="http://www.topografix.com/GPX/1/1 http://www.topografix.com/GPX/1/1/gpx.xsd" version="1.1" creator="VisuGPX - https://www.visugpx.com">
  <metadata>
    <name>GRANDE CANDELLE</name>
    <desc><![CDATA[Passage délicat au vallon St Marthe]]></desc>
  </metadata>
  <trk>
    <name><![CDATA[GRANDE CANDELLE_1]]></name>
    <trkseg>
      <trkpt lat="43.22951" lon="5.43707">
        <ele>155.4</ele>
        <time>2015-02-11T07:44:46Z</time>
      </trkpt>
      <trkpt lat="43.22951" lon="5.43707">
        <ele>155</ele>
        <time>2015-02-11T07:44:47Z</time>
      </trkpt>
      <trkpt lat="43.22933" lon="5.43702">
        <ele>162.6</ele>
        <time>2015-02-11T07:46:37Z</time>
      </trkpt>
      <trkpt lat="43.22899" lon="5.4371">
        <ele>166.3</ele>
        <time>2015-02-11T07:47:11Z</time>
      </trkpt>
      <trkpt lat="43.22882" lon="5.43714">
        <ele>168.3</ele>
        <time>2015-02-11T07:47:27Z</time>
      </trkpt>
      <trkpt lat="43.22865" lon="5.43719">
        <ele>170.3</ele>
        <time>2015-02-11T07:47:44Z</time>
      </trkpt>
      <trkpt lat="43.22864" lon="5.43719">
        <ele>170.1</ele>
        <time>2015-02-11T07:47:45Z</time>
      </trkpt>
      <trkpt lat="43.2283" lon="5.43721">
        <ele>169.6</ele>
        <time>2015-02-11T07:48:18Z</time>
      </trkpt>
      <trkpt lat="43.22813" lon="5.43724">
        <ele>170.8</ele>
        <time>2015-02-11T07:48:33Z</time>
      </trkpt>
      <trkpt lat="43.22796" lon="5.43725">
        <ele>165.8</ele>
        <time>2015-02-11T07:48:50Z</time>
      </trkpt>
      <trkpt lat="43.22795" lon="5.43725">
        <ele>165.8</ele>
        <time>2015-02-11T07:48:51Z</time>
      </trkpt>
      <trkpt lat="43.2276" lon="5.43723">
        <ele>167.8</ele>
        <time>2015-02-11T07:49:22Z</time>
      </trkpt>
      <trkpt lat="43.22743" lon="5.43727">
        <ele>168.6</ele>
        <time>2015-02-11T07:49:37Z</time>
      </trkpt>
      <trkpt lat="43.22726" lon="5.43734">
        <ele>170.6</ele>
        <time>2015-02-11T07:49:51Z</time>
      </trkpt>
      <trkpt lat="43.22725" lon="5.43734">
        <ele>170.8</ele>
        <time>2015-02-11T07:49:52Z</time>
      </trkpt>
      <trkpt lat="43.22694" lon="5.43751">
        <ele>174.6</ele>
        <time>2015-02-11T07:50:21Z</time>
      </trkpt>
      <trkpt lat="43.22678" lon="5.43763">
        <ele>175.8</ele>
        <time>2015-02-11T07:50:37Z</time>
      </trkpt>
      <trkpt lat="43.22664" lon="5.43774">
        <ele>176.5</ele>
        <time>2015-02-11T07:50:52Z</time>
      </trkpt>
      <trkpt lat="43.22663" lon="5.43775">
        <ele>176.6</ele>
        <time>2015-02-11T07:50:53Z</time>
      </trkpt>
      <trkpt lat="43.22633" lon="5.43796">
        <ele>180.1</ele>
        <time>2015-02-11T07:51:24Z</time>
      </trkpt>
      <trkpt lat="43.22617" lon="5.43805">
        <ele>180.6</ele>
        <time>2015-02-11T07:51:40Z</time>
      </trkpt>
      <trkpt lat="43.226" lon="5.43809">
        <ele>178.3</ele>
        <time>2015-02-11T07:51:56Z</time>
      </trkpt>
      <trkpt lat="43.22599" lon="5.4381">
        <ele>178.1</ele>
        <time>2015-02-11T07:51:57Z</time>
      </trkpt>
      <trkpt lat="43.22565" lon="5.43812">
        <ele>174.3</ele>
        <time>2015-02-11T07:52:26Z</time>
      </trkpt>
      <trkpt lat="43.22548" lon="5.43813">
        <ele>174.5</ele>
        <time>2015-02-11T07:52:40Z</time>
      </trkpt>
      <trkpt lat="43.22531" lon="5.43814">
        <ele>170.6</ele>
        <time>2015-02-11T07:52:54Z</time>
      </trkpt>
      <trkpt lat="43.22513" lon="5.43815">
        <ele>170.3</ele>
        <time>2015-02-11T07:53:08Z</time>
      </trkpt>
      <trkpt lat="43.22512" lon="5.43814">
        <ele>170.3</ele>
        <time>2015-02-11T07:53:09Z</time>
      </trkpt>
      <trkpt lat="43.22477" lon="5.43811">
        <ele>170.1</ele>
        <time>2015-02-11T07:53:40Z</time>
      </trkpt>
      <trkpt lat="43.2246" lon="5.43815">
        <ele>165.5</ele>
        <time>2015-02-11T07:53:57Z</time>
      </trkpt>
      <trkpt lat="43.22445" lon="5.43826">
        <ele>170.8</ele>
        <time>2015-02-11T07:54:10Z</time>
      </trkpt>
      <trkpt lat="43.22443" lon="5.43827">
        <ele>170.6</ele>
        <time>2015-02-11T07:54:11Z</time>
      </trkpt>
      <trkpt lat="43.22414" lon="5.43849">
        <ele>178.1</ele>
        <time>2015-02-11T07:54:34Z</time>
      </trkpt>
      <trkpt lat="43.22398" lon="5.43859">
        <ele>179</ele>
        <time>2015-02-11T07:54:49Z</time>
      </trkpt>
      <trkpt lat="43.22383" lon="5.43868">
        <ele>178.5</ele>
        <time>2015-02-11T07:55:03Z</time>
      </trkpt>
      <trkpt lat="43.22368" lon="5.43878">
        <ele>177.6</ele>
        <time>2015-02-11T07:55:19Z</time>
      </trkpt>
      <trkpt lat="43.22367" lon="5.43879">
        <ele>177.5</ele>
        <time>2015-02-11T07:55:20Z</time>
      </trkpt>
      <trkpt lat="43.22341" lon="5.43907">
        <ele>172.6</ele>
        <time>2015-02-11T07:55:49Z</time>
      </trkpt>
      <trkpt lat="43.22328" lon="5.43925">
        <ele>176.8</ele>
        <time>2015-02-11T07:56:04Z</time>
      </trkpt>
      <trkpt lat="43.22316" lon="5.43942">
        <ele>177.6</ele>
        <time>2015-02-11T07:56:21Z</time>
      </trkpt>
      <trkpt lat="43.22316" lon="5.43943">
        <ele>177.6</ele>
        <time>2015-02-11T07:56:22Z</time>
      </trkpt>
      <trkpt lat="43.22287" lon="5.43969">
        <ele>174.3</ele>
        <time>2015-02-11T07:56:52Z</time>
      </trkpt>
      <trkpt lat="43.22272" lon="5.43982">
        <ele>172.8</ele>
        <time>2015-02-11T07:57:07Z</time>
      </trkpt>
      <trkpt lat="43.22256" lon="5.4399">
        <ele>173.8</ele>
        <time>2015-02-11T07:57:21Z</time>
      </trkpt>
      <trkpt lat="43.22238" lon="5.43995">
        <ele>172.8</ele>
        <time>2015-02-11T07:57:38Z</time>
      </trkpt>
      <trkpt lat="43.22238" lon="5.43995">
        <ele>172.6</ele>
        <time>2015-02-11T07:57:39Z</time>
      </trkpt>
      <trkpt lat="43.22206" lon="5.44007">
        <ele>169.8</ele>
        <time>2015-02-11T07:58:09Z</time>
      </trkpt>
      <trkpt lat="43.22189" lon="5.44014">
        <ele>171.8</ele>
        <time>2015-02-11T07:58:25Z</time>
      </trkpt>
      <trkpt lat="43.22173" lon="5.44024">
        <ele>177.5</ele>
        <time>2015-02-11T07:58:39Z</time>
      </trkpt>
      <trkpt lat="43.22172" lon="5.44025">
        <ele>178.1</ele>
        <time>2015-02-11T07:58:40Z</time>
      </trkpt>
      <trkpt lat="43.22144" lon="5.44046">
        <ele>177.6</ele>
        <time>2015-02-11T07:59:09Z</time>
      </trkpt>
      <trkpt lat="43.22129" lon="5.44059">
        <ele>180.3</ele>
        <time>2015-02-11T07:59:23Z</time>
      </trkpt>
      <trkpt lat="43.22114" lon="5.44072">
        <ele>184.6</ele>
        <time>2015-02-11T07:59:38Z</time>
      </trkpt>
      <trkpt lat="43.221" lon="5.44084">
        <ele>188.3</ele>
        <time>2015-02-11T07:59:53Z</time>
      </trkpt>
      <trkpt lat="43.22099" lon="5.44085">
        <ele>188.3</ele>
        <time>2015-02-11T07:59:54Z</time>
      </trkpt>
      <trkpt lat="43.22073" lon="5.44114">
        <ele>186.6</ele>
        <time>2015-02-11T08:00:23Z</time>
      </trkpt>
      <trkpt lat="43.22064" lon="5.44134">
        <ele>187.1</ele>
        <time>2015-02-11T08:00:40Z</time>
      </trkpt>
      <trkpt lat="43.22056" lon="5.44156">
        <ele>185.1</ele>
        <time>2015-02-11T08:00:55Z</time>
      </trkpt>
      <trkpt lat="43.22056" lon="5.44157">
        <ele>185.3</ele>
        <time>2015-02-11T08:00:56Z</time>
      </trkpt>
      <trkpt lat="43.22045" lon="5.44201">
        <ele>186.3</ele>
        <time>2015-02-11T08:01:27Z</time>
      </trkpt>
      <trkpt lat="43.22039" lon="5.44223">
        <ele>185</ele>
        <time>2015-02-11T08:01:42Z</time>
      </trkpt>
      <trkpt lat="43.22031" lon="5.44245">
        <ele>188.5</ele>
        <time>2015-02-11T08:01:57Z</time>
      </trkpt>
      <trkpt lat="43.2203" lon="5.44246">
        <ele>188.3</ele>
        <time>2015-02-11T08:01:58Z</time>
      </trkpt>
      <trkpt lat="43.22015" lon="5.44288">
        <ele>189.6</ele>
        <time>2015-02-11T08:02:29Z</time>
      </trkpt>
      <trkpt lat="43.22005" lon="5.44306">
        <ele>191.5</ele>
        <time>2015-02-11T08:02:45Z</time>
      </trkpt>
      <trkpt lat="43.21993" lon="5.44324">
        <ele>196.1</ele>
        <time>2015-02-11T08:02:59Z</time>
      </trkpt>
      <trkpt lat="43.21993" lon="5.44325">
        <ele>196</ele>
        <time>2015-02-11T08:03:00Z</time>
      </trkpt>
      <trkpt lat="43.21976" lon="5.44365">
        <ele>199.6</ele>
        <time>2015-02-11T08:03:29Z</time>
      </trkpt>
      <trkpt lat="43.21965" lon="5.44382">
        <ele>202.8</ele>
        <time>2015-02-11T08:03:54Z</time>
      </trkpt>
      <trkpt lat="43.21954" lon="5.444">
        <ele>201.6</ele>
        <time>2015-02-11T08:04:07Z</time>
      </trkpt>
      <trkpt lat="43.21954" lon="5.44402">
        <ele>201.6</ele>
        <time>2015-02-11T08:04:08Z</time>
      </trkpt>
      <trkpt lat="43.21932" lon="5.44437">
        <ele>202.1</ele>
        <time>2015-02-11T08:04:41Z</time>
      </trkpt>
      <trkpt lat="43.21926" lon="5.44459">
        <ele>199.8</ele>
        <time>2015-02-11T08:04:59Z</time>
      </trkpt>
      <trkpt lat="43.21921" lon="5.44482">
        <ele>203.1</ele>
        <time>2015-02-11T08:05:12Z</time>
      </trkpt>
      <trkpt lat="43.21921" lon="5.44483">
        <ele>203.3</ele>
        <time>2015-02-11T08:05:13Z</time>
      </trkpt>
      <trkpt lat="43.21924" lon="5.44527">
        <ele>206.5</ele>
        <time>2015-02-11T08:05:55Z</time>
      </trkpt>
      <trkpt lat="43.21932" lon="5.44549">
        <ele>208.8</ele>
        <time>2015-02-11T08:10:20Z</time>
      </trkpt>
      <trkpt lat="43.21932" lon="5.44549">
        <ele>209</ele>
        <time>2015-02-11T08:10:21Z</time>
      </trkpt>
      <trkpt lat="43.21924" lon="5.44572">
        <ele>203.1</ele>
        <time>2015-02-11T08:11:31Z</time>
      </trkpt>
      <trkpt lat="43.21904" lon="5.44609">
        <ele>205.8</ele>
        <time>2015-02-11T08:12:02Z</time>
      </trkpt>
      <trkpt lat="43.21891" lon="5.44626">
        <ele>206.8</ele>
        <time>2015-02-11T08:12:20Z</time>
      </trkpt>
      <trkpt lat="43.21886" lon="5.44648">
        <ele>208.5</ele>
        <time>2015-02-11T08:12:35Z</time>
      </trkpt>
      <trkpt lat="43.21886" lon="5.44649">
        <ele>208.6</ele>
        <time>2015-02-11T08:12:36Z</time>
      </trkpt>
      <trkpt lat="43.21877" lon="5.44693">
        <ele>212.8</ele>
        <time>2015-02-11T08:13:09Z</time>
      </trkpt>
      <trkpt lat="43.21877" lon="5.44717">
        <ele>213.3</ele>
        <time>2015-02-11T08:13:27Z</time>
      </trkpt>
      <trkpt lat="43.21891" lon="5.4473">
        <ele>218.6</ele>
        <time>2015-02-11T08:13:51Z</time>
      </trkpt>
      <trkpt lat="43.21892" lon="5.4473">
        <ele>218.8</ele>
        <time>2015-02-11T08:13:52Z</time>
      </trkpt>
      <trkpt lat="43.21891" lon="5.44741">
        <ele>217.8</ele>
        <time>2015-02-11T08:15:16Z</time>
      </trkpt>
      <trkpt lat="43.2189" lon="5.44742">
        <ele>217.6</ele>
        <time>2015-02-11T08:15:17Z</time>
      </trkpt>
      <trkpt lat="43.21875" lon="5.44783">
        <ele>215.3</ele>
        <time>2015-02-11T08:15:46Z</time>
      </trkpt>
      <trkpt lat="43.21876" lon="5.44807">
        <ele>214.1</ele>
        <time>2015-02-11T08:16:03Z</time>
      </trkpt>
      <trkpt lat="43.21878" lon="5.4483">
        <ele>213.6</ele>
        <time>2015-02-11T08:16:19Z</time>
      </trkpt>
      <trkpt lat="43.21877" lon="5.44831">
        <ele>213.6</ele>
        <time>2015-02-11T08:16:20Z</time>
      </trkpt>
      <trkpt lat="43.21852" lon="5.44856">
        <ele>209.6</ele>
        <time>2015-02-11T08:16:54Z</time>
      </trkpt>
      <trkpt lat="43.21836" lon="5.44856">
        <ele>208.8</ele>
        <time>2015-02-11T08:17:10Z</time>
      </trkpt>
      <trkpt lat="43.21819" lon="5.44862">
        <ele>209</ele>
        <time>2015-02-11T08:17:25Z</time>
      </trkpt>
      <trkpt lat="43.21818" lon="5.44862">
        <ele>209</ele>
        <time>2015-02-11T08:17:26Z</time>
      </trkpt>
      <trkpt lat="43.21807" lon="5.44904">
        <ele>209.8</ele>
        <time>2015-02-11T08:17:56Z</time>
      </trkpt>
      <trkpt lat="43.21791" lon="5.44914">
        <ele>208.3</ele>
        <time>2015-02-11T08:18:14Z</time>
      </trkpt>
      <trkpt lat="43.21774" lon="5.44914">
        <ele>207.1</ele>
        <time>2015-02-11T08:18:30Z</time>
      </trkpt>
      <trkpt lat="43.21773" lon="5.44914">
        <ele>207.1</ele>
        <time>2015-02-11T08:18:31Z</time>
      </trkpt>
      <trkpt lat="43.21742" lon="5.44927">
        <ele>204.8</ele>
        <time>2015-02-11T08:19:01Z</time>
      </trkpt>
      <trkpt lat="43.21727" lon="5.4494">
        <ele>204.1</ele>
        <time>2015-02-11T08:19:17Z</time>
      </trkpt>
      <trkpt lat="43.2171" lon="5.44947">
        <ele>208.8</ele>
        <time>2015-02-11T08:20:07Z</time>
      </trkpt>
      <trkpt lat="43.21709" lon="5.44948">
        <ele>208.8</ele>
        <time>2015-02-11T08:20:08Z</time>
      </trkpt>
      <trkpt lat="43.21686" lon="5.44981">
        <ele>208.8</ele>
        <time>2015-02-11T08:20:34Z</time>
      </trkpt>
      <trkpt lat="43.21679" lon="5.45002">
        <ele>207</ele>
        <time>2015-02-11T08:20:48Z</time>
      </trkpt>
      <trkpt lat="43.21675" lon="5.45025">
        <ele>206.3</ele>
        <time>2015-02-11T08:21:02Z</time>
      </trkpt>
      <trkpt lat="43.21686" lon="5.45044">
        <ele>207.1</ele>
        <time>2015-02-11T08:21:18Z</time>
      </trkpt>
      <trkpt lat="43.21688" lon="5.45045">
        <ele>207.1</ele>
        <time>2015-02-11T08:21:19Z</time>
      </trkpt>
      <trkpt lat="43.2171" lon="5.45082">
        <ele>205.3</ele>
        <time>2015-02-11T08:21:49Z</time>
      </trkpt>
      <trkpt lat="43.21718" lon="5.45102">
        <ele>204.5</ele>
        <time>2015-02-11T08:22:04Z</time>
      </trkpt>
      <trkpt lat="43.21719" lon="5.45126">
        <ele>204.3</ele>
        <time>2015-02-11T08:22:18Z</time>
      </trkpt>
      <trkpt lat="43.21719" lon="5.4515">
        <ele>202.3</ele>
        <time>2015-02-11T08:22:33Z</time>
      </trkpt>
      <trkpt lat="43.2172" lon="5.45153">
        <ele>202.3</ele>
        <time>2015-02-11T08:22:34Z</time>
      </trkpt>
      <trkpt lat="43.21723" lon="5.45197">
        <ele>208.5</ele>
        <time>2015-02-11T08:23:00Z</time>
      </trkpt>
      <trkpt lat="43.21725" lon="5.4522">
        <ele>212.8</ele>
        <time>2015-02-11T08:23:12Z</time>
      </trkpt>
      <trkpt lat="43.21729" lon="5.45243">
        <ele>216.8</ele>
        <time>2015-02-11T08:23:26Z</time>
      </trkpt>
      <trkpt lat="43.21733" lon="5.45267">
        <ele>219.8</ele>
        <time>2015-02-11T08:23:41Z</time>
      </trkpt>
      <trkpt lat="43.21733" lon="5.45269">
        <ele>220.1</ele>
        <time>2015-02-11T08:23:42Z</time>
      </trkpt>
      <trkpt lat="43.21711" lon="5.45288">
        <ele>219.8</ele>
        <time>2015-02-11T08:24:15Z</time>
      </trkpt>
      <trkpt lat="43.21695" lon="5.45278">
        <ele>219.6</ele>
        <time>2015-02-11T08:24:29Z</time>
      </trkpt>
      <trkpt lat="43.2168" lon="5.45266">
        <ele>219.3</ele>
        <time>2015-02-11T08:24:44Z</time>
      </trkpt>
      <trkpt lat="43.21678" lon="5.45264">
        <ele>220.1</ele>
        <time>2015-02-11T08:24:45Z</time>
      </trkpt>
      <trkpt lat="43.21652" lon="5.45237">
        <ele>227.3</ele>
        <time>2015-02-11T08:25:10Z</time>
      </trkpt>
      <trkpt lat="43.21637" lon="5.45226">
        <ele>224.1</ele>
        <time>2015-02-11T08:25:27Z</time>
      </trkpt>
      <trkpt lat="43.21621" lon="5.45218">
        <ele>221.6</ele>
        <time>2015-02-11T08:25:43Z</time>
      </trkpt>
      <trkpt lat="43.21606" lon="5.45204">
        <ele>220.5</ele>
        <time>2015-02-11T08:26:01Z</time>
      </trkpt>
      <trkpt lat="43.21606" lon="5.45204">
        <ele>220.3</ele>
        <time>2015-02-11T08:26:02Z</time>
      </trkpt>
      <trkpt lat="43.21592" lon="5.45219">
        <ele>221.1</ele>
        <time>2015-02-11T08:27:20Z</time>
      </trkpt>
      <trkpt lat="43.21574" lon="5.4526">
        <ele>226.6</ele>
        <time>2015-02-11T08:28:13Z</time>
      </trkpt>
      <trkpt lat="43.21561" lon="5.45277">
        <ele>231.6</ele>
        <time>2015-02-11T08:28:39Z</time>
      </trkpt>
      <trkpt lat="43.21561" lon="5.45277">
        <ele>231.8</ele>
        <time>2015-02-11T08:28:40Z</time>
      </trkpt>
      <trkpt lat="43.21556" lon="5.45314">
        <ele>240.5</ele>
        <time>2015-02-11T08:29:49Z</time>
      </trkpt>
      <trkpt lat="43.21557" lon="5.45315">
        <ele>240.6</ele>
        <time>2015-02-11T08:29:50Z</time>
      </trkpt>
      <trkpt lat="43.2159" lon="5.45303">
        <ele>251.1</ele>
        <time>2015-02-11T08:30:55Z</time>
      </trkpt>
      <trkpt lat="43.21591" lon="5.45303">
        <ele>251.3</ele>
        <time>2015-02-11T08:30:56Z</time>
      </trkpt>
      <trkpt lat="43.21582" lon="5.45347">
        <ele>263.8</ele>
        <time>2015-02-11T08:32:15Z</time>
      </trkpt>
      <trkpt lat="43.21582" lon="5.45348">
        <ele>264.2</ele>
        <time>2015-02-11T08:32:16Z</time>
      </trkpt>
      <trkpt lat="43.21578" lon="5.45396">
        <ele>267.6</ele>
        <time>2015-02-11T08:35:18Z</time>
      </trkpt>
      <trkpt lat="43.21577" lon="5.45397">
        <ele>267.6</ele>
        <time>2015-02-11T08:35:19Z</time>
      </trkpt>
      <trkpt lat="43.21576" lon="5.45443">
        <ele>269.2</ele>
        <time>2015-02-11T08:36:04Z</time>
      </trkpt>
      <trkpt lat="43.2159" lon="5.45458">
        <ele>273.7</ele>
        <time>2015-02-11T08:36:26Z</time>
      </trkpt>
      <trkpt lat="43.21591" lon="5.45459">
        <ele>273.8</ele>
        <time>2015-02-11T08:36:27Z</time>
      </trkpt>
      <trkpt lat="43.21615" lon="5.45492">
        <ele>281</ele>
        <time>2015-02-11T08:37:15Z</time>
      </trkpt>
      <trkpt lat="43.21621" lon="5.45515">
        <ele>282.8</ele>
        <time>2015-02-11T08:37:38Z</time>
      </trkpt>
      <trkpt lat="43.21621" lon="5.45516">
        <ele>283.1</ele>
        <time>2015-02-11T08:37:39Z</time>
      </trkpt>
      <trkpt lat="43.21632" lon="5.4556">
        <ele>286.2</ele>
        <time>2015-02-11T08:38:22Z</time>
      </trkpt>
      <trkpt lat="43.21638" lon="5.45582">
        <ele>288.7</ele>
        <time>2015-02-11T08:38:44Z</time>
      </trkpt>
      <trkpt lat="43.21639" lon="5.45583">
        <ele>288.7</ele>
        <time>2015-02-11T08:38:45Z</time>
      </trkpt>
      <trkpt lat="43.21646" lon="5.4563">
        <ele>293</ele>
        <time>2015-02-11T08:39:25Z</time>
      </trkpt>
      <trkpt lat="43.21651" lon="5.45653">
        <ele>294.3</ele>
        <time>2015-02-11T08:39:45Z</time>
      </trkpt>
      <trkpt lat="43.21651" lon="5.45654">
        <ele>294.2</ele>
        <time>2015-02-11T08:39:46Z</time>
      </trkpt>
      <trkpt lat="43.21671" lon="5.45692">
        <ele>298.5</ele>
        <time>2015-02-11T08:40:25Z</time>
      </trkpt>
      <trkpt lat="43.21686" lon="5.45706">
        <ele>299</ele>
        <time>2015-02-11T08:40:45Z</time>
      </trkpt>
      <trkpt lat="43.21698" lon="5.45723">
        <ele>300.1</ele>
        <time>2015-02-11T08:41:04Z</time>
      </trkpt>
      <trkpt lat="43.21699" lon="5.45724">
        <ele>300.2</ele>
        <time>2015-02-11T08:41:05Z</time>
      </trkpt>
      <trkpt lat="43.21717" lon="5.45765">
        <ele>310.7</ele>
        <time>2015-02-11T08:41:55Z</time>
      </trkpt>
      <trkpt lat="43.21727" lon="5.45785">
        <ele>319.5</ele>
        <time>2015-02-11T08:42:42Z</time>
      </trkpt>
      <trkpt lat="43.21728" lon="5.45785">
        <ele>319.7</ele>
        <time>2015-02-11T08:42:43Z</time>
      </trkpt>
      <trkpt lat="43.21745" lon="5.45779">
        <ele>331.3</ele>
        <time>2015-02-11T08:46:44Z</time>
      </trkpt>
      <trkpt lat="43.21763" lon="5.45776">
        <ele>339.2</ele>
        <time>2015-02-11T08:47:54Z</time>
      </trkpt>
      <trkpt lat="43.21781" lon="5.45773">
        <ele>364.1</ele>
        <time>2015-02-11T08:49:26Z</time>
      </trkpt>
      <trkpt lat="43.21798" lon="5.45779">
        <ele>373.1</ele>
        <time>2015-02-11T08:50:31Z</time>
      </trkpt>
      <trkpt lat="43.21816" lon="5.45784">
        <ele>371.7</ele>
        <time>2015-02-11T08:51:37Z</time>
      </trkpt>
      <trkpt lat="43.21814" lon="5.45809">
        <ele>390.8</ele>
        <time>2015-02-11T08:53:03Z</time>
      </trkpt>
      <trkpt lat="43.21789" lon="5.45829">
        <ele>388.7</ele>
        <time>2015-02-11T08:55:08Z</time>
      </trkpt>
      <trkpt lat="43.21789" lon="5.45829">
        <ele>388.6</ele>
        <time>2015-02-11T08:55:09Z</time>
      </trkpt>
      <trkpt lat="43.21794" lon="5.45853">
        <ele>379.6</ele>
        <time>2015-02-11T09:07:53Z</time>
      </trkpt>
      <trkpt lat="43.21772" lon="5.45878">
        <ele>373.2</ele>
        <time>2015-02-11T09:09:04Z</time>
      </trkpt>
      <trkpt lat="43.21772" lon="5.45878">
        <ele>373.3</ele>
        <time>2015-02-11T09:09:05Z</time>
      </trkpt>
      <trkpt lat="43.21756" lon="5.45868">
        <ele>375.7</ele>
        <time>2015-02-11T09:10:55Z</time>
      </trkpt>
      <trkpt lat="43.21724" lon="5.45886">
        <ele>369.2</ele>
        <time>2015-02-11T09:11:43Z</time>
      </trkpt>
      <trkpt lat="43.21707" lon="5.4589">
        <ele>368.7</ele>
        <time>2015-02-11T09:12:02Z</time>
      </trkpt>
      <trkpt lat="43.21706" lon="5.45891">
        <ele>368.7</ele>
        <time>2015-02-11T09:12:03Z</time>
      </trkpt>
      <trkpt lat="43.21689" lon="5.45927">
        <ele>365.7</ele>
        <time>2015-02-11T09:12:46Z</time>
      </trkpt>
      <trkpt lat="43.21685" lon="5.4595">
        <ele>363.2</ele>
        <time>2015-02-11T09:13:06Z</time>
      </trkpt>
      <trkpt lat="43.21685" lon="5.45951">
        <ele>363.1</ele>
        <time>2015-02-11T09:13:07Z</time>
      </trkpt>
      <trkpt lat="43.21683" lon="5.45998">
        <ele>368.3</ele>
        <time>2015-02-11T09:13:42Z</time>
      </trkpt>
      <trkpt lat="43.21693" lon="5.46018">
        <ele>364.2</ele>
        <time>2015-02-11T09:14:04Z</time>
      </trkpt>
      <trkpt lat="43.21705" lon="5.46034">
        <ele>363.7</ele>
        <time>2015-02-11T09:14:19Z</time>
      </trkpt>
      <trkpt lat="43.21706" lon="5.46036">
        <ele>363</ele>
        <time>2015-02-11T09:14:20Z</time>
      </trkpt>
      <trkpt lat="43.21677" lon="5.46059">
        <ele>353.2</ele>
        <time>2015-02-11T09:15:00Z</time>
      </trkpt>
      <trkpt lat="43.21662" lon="5.46069">
        <ele>352</ele>
        <time>2015-02-11T09:15:15Z</time>
      </trkpt>
      <trkpt lat="43.21645" lon="5.4606">
        <ele>354.3</ele>
        <time>2015-02-11T09:15:33Z</time>
      </trkpt>
      <trkpt lat="43.21644" lon="5.4606">
        <ele>354.6</ele>
        <time>2015-02-11T09:15:34Z</time>
      </trkpt>
      <trkpt lat="43.21612" lon="5.46054">
        <ele>357.5</ele>
        <time>2015-02-11T09:16:11Z</time>
      </trkpt>
      <trkpt lat="43.21597" lon="5.46066">
        <ele>356.7</ele>
        <time>2015-02-11T09:16:28Z</time>
      </trkpt>
      <trkpt lat="43.21579" lon="5.46062">
        <ele>363.2</ele>
        <time>2015-02-11T09:16:50Z</time>
      </trkpt>
      <trkpt lat="43.21579" lon="5.46062">
        <ele>363.2</ele>
        <time>2015-02-11T09:16:51Z</time>
      </trkpt>
      <trkpt lat="43.21545" lon="5.4605">
        <ele>358.7</ele>
        <time>2015-02-11T09:17:32Z</time>
      </trkpt>
      <trkpt lat="43.21531" lon="5.46064">
        <ele>357.3</ele>
        <time>2015-02-11T09:18:03Z</time>
      </trkpt>
      <trkpt lat="43.21531" lon="5.46066">
        <ele>357.1</ele>
        <time>2015-02-11T09:18:04Z</time>
      </trkpt>
      <trkpt lat="43.21532" lon="5.46111">
        <ele>350.1</ele>
        <time>2015-02-11T09:18:39Z</time>
      </trkpt>
      <trkpt lat="43.21527" lon="5.46134">
        <ele>351.5</ele>
        <time>2015-02-11T09:18:53Z</time>
      </trkpt>
      <trkpt lat="43.2152" lon="5.46156">
        <ele>353.2</ele>
        <time>2015-02-11T09:19:12Z</time>
      </trkpt>
      <trkpt lat="43.2152" lon="5.46157">
        <ele>353.2</ele>
        <time>2015-02-11T09:19:13Z</time>
      </trkpt>
      <trkpt lat="43.21489" lon="5.46176">
        <ele>356.2</ele>
        <time>2015-02-11T09:19:57Z</time>
      </trkpt>
      <trkpt lat="43.21472" lon="5.46183">
        <ele>356.5</ele>
        <time>2015-02-11T09:20:16Z</time>
      </trkpt>
      <trkpt lat="43.21471" lon="5.46183">
        <ele>356.3</ele>
        <time>2015-02-11T09:20:17Z</time>
      </trkpt>
      <trkpt lat="43.21443" lon="5.46209">
        <ele>354.2</ele>
        <time>2015-02-11T09:21:03Z</time>
      </trkpt>
      <trkpt lat="43.21441" lon="5.46233">
        <ele>353</ele>
        <time>2015-02-11T09:21:25Z</time>
      </trkpt>
      <trkpt lat="43.21441" lon="5.46234">
        <ele>353.1</ele>
        <time>2015-02-11T09:21:26Z</time>
      </trkpt>
      <trkpt lat="43.21442" lon="5.46281">
        <ele>357.8</ele>
        <time>2015-02-11T09:22:03Z</time>
      </trkpt>
      <trkpt lat="43.21447" lon="5.46304">
        <ele>358.1</ele>
        <time>2015-02-11T09:22:25Z</time>
      </trkpt>
      <trkpt lat="43.2146" lon="5.46321">
        <ele>360.1</ele>
        <time>2015-02-11T09:22:46Z</time>
      </trkpt>
      <trkpt lat="43.2146" lon="5.46321">
        <ele>360.1</ele>
        <time>2015-02-11T09:22:47Z</time>
      </trkpt>
      <trkpt lat="43.2146" lon="5.4636">
        <ele>360.7</ele>
        <time>2015-02-11T09:23:30Z</time>
      </trkpt>
      <trkpt lat="43.21454" lon="5.46382">
        <ele>362.1</ele>
        <time>2015-02-11T09:23:55Z</time>
      </trkpt>
      <trkpt lat="43.21453" lon="5.46383">
        <ele>362.5</ele>
        <time>2015-02-11T09:23:56Z</time>
      </trkpt>
      <trkpt lat="43.21454" lon="5.46427">
        <ele>361.6</ele>
        <time>2015-02-11T09:24:38Z</time>
      </trkpt>
      <trkpt lat="43.21467" lon="5.46443">
        <ele>364.7</ele>
        <time>2015-02-11T09:25:09Z</time>
      </trkpt>
      <trkpt lat="43.21467" lon="5.46444">
        <ele>365.1</ele>
        <time>2015-02-11T09:25:10Z</time>
      </trkpt>
      <trkpt lat="43.21447" lon="5.46477">
        <ele>374.3</ele>
        <time>2015-02-11T09:25:55Z</time>
      </trkpt>
      <trkpt lat="43.21432" lon="5.4649">
        <ele>373.8</ele>
        <time>2015-02-11T09:26:24Z</time>
      </trkpt>
      <trkpt lat="43.21432" lon="5.4649">
        <ele>373.7</ele>
        <time>2015-02-11T09:26:25Z</time>
      </trkpt>
      <trkpt lat="43.21404" lon="5.46515">
        <ele>387.7</ele>
        <time>2015-02-11T09:27:51Z</time>
      </trkpt>
      <trkpt lat="43.21403" lon="5.46515">
        <ele>388.1</ele>
        <time>2015-02-11T09:27:52Z</time>
      </trkpt>
      <trkpt lat="43.21371" lon="5.46526">
        <ele>401.7</ele>
        <time>2015-02-11T09:29:16Z</time>
      </trkpt>
      <trkpt lat="43.2137" lon="5.46526">
        <ele>402.2</ele>
        <time>2015-02-11T09:29:17Z</time>
      </trkpt>
      <trkpt lat="43.21353" lon="5.46525">
        <ele>403.6</ele>
        <time>2015-02-11T09:30:54Z</time>
      </trkpt>
      <trkpt lat="43.21348" lon="5.46547">
        <ele>408</ele>
        <time>2015-02-11T09:38:34Z</time>
      </trkpt>
      <trkpt lat="43.21326" lon="5.46581">
        <ele>411.3</ele>
        <time>2015-02-11T09:39:22Z</time>
      </trkpt>
      <trkpt lat="43.21308" lon="5.46584">
        <ele>415</ele>
        <time>2015-02-11T09:39:47Z</time>
      </trkpt>
      <trkpt lat="43.21308" lon="5.46584">
        <ele>415.2</ele>
        <time>2015-02-11T09:39:48Z</time>
      </trkpt>
      <trkpt lat="43.213" lon="5.46606">
        <ele>429.2</ele>
        <time>2015-02-11T09:41:25Z</time>
      </trkpt>
      <trkpt lat="43.21319" lon="5.46609">
        <ele>429.7</ele>
        <time>2015-02-11T09:47:06Z</time>
      </trkpt>
      <trkpt lat="43.2135" lon="5.46613">
        <ele>432.2</ele>
        <time>2015-02-11T09:47:55Z</time>
      </trkpt>
      <trkpt lat="43.21367" lon="5.46618">
        <ele>434.2</ele>
        <time>2015-02-11T09:48:16Z</time>
      </trkpt>
      <trkpt lat="43.21368" lon="5.46618">
        <ele>434.5</ele>
        <time>2015-02-11T09:48:17Z</time>
      </trkpt>
      <trkpt lat="43.21401" lon="5.46606">
        <ele>433.7</ele>
        <time>2015-02-11T09:48:55Z</time>
      </trkpt>
      <trkpt lat="43.21418" lon="5.46605">
        <ele>434.1</ele>
        <time>2015-02-11T09:49:16Z</time>
      </trkpt>
      <trkpt lat="43.21435" lon="5.46605">
        <ele>436.7</ele>
        <time>2015-02-11T09:49:39Z</time>
      </trkpt>
      <trkpt lat="43.21436" lon="5.46605">
        <ele>436.6</ele>
        <time>2015-02-11T09:49:40Z</time>
      </trkpt>
      <trkpt lat="43.2147" lon="5.46596">
        <ele>435.2</ele>
        <time>2015-02-11T09:50:48Z</time>
      </trkpt>
      <trkpt lat="43.21471" lon="5.46597">
        <ele>434.8</ele>
        <time>2015-02-11T09:50:49Z</time>
      </trkpt>
      <trkpt lat="43.21488" lon="5.46601">
        <ele>433.8</ele>
        <time>2015-02-11T09:51:55Z</time>
      </trkpt>
      <trkpt lat="43.2152" lon="5.46584">
        <ele>436.1</ele>
        <time>2015-02-11T09:52:59Z</time>
      </trkpt>
      <trkpt lat="43.2152" lon="5.46583">
        <ele>436.6</ele>
        <time>2015-02-11T09:53:00Z</time>
      </trkpt>
      <trkpt lat="43.21554" lon="5.46581">
        <ele>450.7</ele>
        <time>2015-02-11T09:54:22Z</time>
      </trkpt>
      <trkpt lat="43.21555" lon="5.46581">
        <ele>451.1</ele>
        <time>2015-02-11T09:54:23Z</time>
      </trkpt>
      <trkpt lat="43.21571" lon="5.4659">
        <ele>461.1</ele>
        <time>2015-02-11T09:56:26Z</time>
      </trkpt>
      <trkpt lat="43.21606" lon="5.46588">
        <ele>466.6</ele>
        <time>2015-02-11T09:57:55Z</time>
      </trkpt>
      <trkpt lat="43.21606" lon="5.46587">
        <ele>466.6</ele>
        <time>2015-02-11T09:57:56Z</time>
      </trkpt>
      <trkpt lat="43.21639" lon="5.46572">
        <ele>476</ele>
        <time>2015-02-11T09:58:59Z</time>
      </trkpt>
      <trkpt lat="43.21639" lon="5.46571">
        <ele>476.1</ele>
        <time>2015-02-11T09:59:00Z</time>
      </trkpt>
      <trkpt lat="43.2167" lon="5.4655">
        <ele>480.7</ele>
        <time>2015-02-11T10:00:04Z</time>
      </trkpt>
      <trkpt lat="43.21671" lon="5.4655">
        <ele>480.6</ele>
        <time>2015-02-11T10:00:05Z</time>
      </trkpt>
      <trkpt lat="43.21686" lon="5.46538">
        <ele>485.2</ele>
        <time>2015-02-11T10:02:06Z</time>
      </trkpt>
      <trkpt lat="43.21719" lon="5.46522">
        <ele>492</ele>
        <time>2015-02-11T10:03:17Z</time>
      </trkpt>
      <trkpt lat="43.21719" lon="5.46522">
        <ele>492.2</ele>
        <time>2015-02-11T10:03:18Z</time>
      </trkpt>
      <trkpt lat="43.21751" lon="5.46507">
        <ele>494.3</ele>
        <time>2015-02-11T10:03:58Z</time>
      </trkpt>
      <trkpt lat="43.21767" lon="5.465">
        <ele>495.2</ele>
        <time>2015-02-11T10:04:19Z</time>
      </trkpt>
      <trkpt lat="43.21768" lon="5.46499">
        <ele>495.2</ele>
        <time>2015-02-11T10:04:20Z</time>
      </trkpt>
      <trkpt lat="43.21798" lon="5.46478">
        <ele>500.2</ele>
        <time>2015-02-11T10:05:08Z</time>
      </trkpt>
      <trkpt lat="43.21813" lon="5.46466">
        <ele>504.7</ele>
        <time>2015-02-11T10:05:31Z</time>
      </trkpt>
      <trkpt lat="43.21814" lon="5.46466">
        <ele>505.5</ele>
        <time>2015-02-11T10:05:32Z</time>
      </trkpt>
      <trkpt lat="43.21847" lon="5.46467">
        <ele>506.5</ele>
        <time>2015-02-11T10:06:09Z</time>
      </trkpt>
      <trkpt lat="43.21865" lon="5.46468">
        <ele>509.3</ele>
        <time>2015-02-11T10:06:29Z</time>
      </trkpt>
      <trkpt lat="43.21882" lon="5.46472">
        <ele>510.1</ele>
        <time>2015-02-11T10:06:48Z</time>
      </trkpt>
      <trkpt lat="43.21883" lon="5.46472">
        <ele>510.1</ele>
        <time>2015-02-11T10:06:49Z</time>
      </trkpt>
      <trkpt lat="43.21916" lon="5.46479">
        <ele>517.7</ele>
        <time>2015-02-11T10:07:27Z</time>
      </trkpt>
      <trkpt lat="43.21933" lon="5.46482">
        <ele>517.2</ele>
        <time>2015-02-11T10:07:42Z</time>
      </trkpt>
      <trkpt lat="43.21951" lon="5.46484">
        <ele>518.7</ele>
        <time>2015-02-11T10:08:01Z</time>
      </trkpt>
      <trkpt lat="43.21951" lon="5.46484">
        <ele>519.2</ele>
        <time>2015-02-11T10:08:02Z</time>
      </trkpt>
      <trkpt lat="43.21985" lon="5.46487">
        <ele>519.5</ele>
        <time>2015-02-11T10:08:46Z</time>
      </trkpt>
      <trkpt lat="43.22001" lon="5.4648">
        <ele>522.5</ele>
        <time>2015-02-11T10:09:06Z</time>
      </trkpt>
      <trkpt lat="43.22002" lon="5.4648">
        <ele>522.7</ele>
        <time>2015-02-11T10:09:07Z</time>
      </trkpt>
      <trkpt lat="43.22031" lon="5.46454">
        <ele>528.4</ele>
        <time>2015-02-11T10:10:03Z</time>
      </trkpt>
      <trkpt lat="43.22034" lon="5.4643">
        <ele>528.5</ele>
        <time>2015-02-11T10:15:21Z</time>
      </trkpt>
      <trkpt lat="43.22033" lon="5.46429">
        <ele>528.7</ele>
        <time>2015-02-11T10:15:22Z</time>
      </trkpt>
      <trkpt lat="43.22019" lon="5.46386">
        <ele>530.5</ele>
        <time>2015-02-11T10:16:10Z</time>
      </trkpt>
      <trkpt lat="43.22017" lon="5.46362">
        <ele>529.7</ele>
        <time>2015-02-11T10:16:54Z</time>
      </trkpt>
      <trkpt lat="43.22017" lon="5.46361">
        <ele>529.5</ele>
        <time>2015-02-11T10:16:55Z</time>
      </trkpt>
      <trkpt lat="43.2205" lon="5.46371">
        <ele>512.5</ele>
        <time>2015-02-11T10:18:13Z</time>
      </trkpt>
      <trkpt lat="43.2205" lon="5.46372">
        <ele>512.5</ele>
        <time>2015-02-11T10:18:14Z</time>
      </trkpt>
      <trkpt lat="43.22083" lon="5.46383">
        <ele>495.7</ele>
        <time>2015-02-11T10:19:32Z</time>
      </trkpt>
      <trkpt lat="43.22084" lon="5.46384">
        <ele>495.5</ele>
        <time>2015-02-11T10:19:33Z</time>
      </trkpt>
      <trkpt lat="43.22118" lon="5.46393">
        <ele>482.1</ele>
        <time>2015-02-11T10:20:29Z</time>
      </trkpt>
      <trkpt lat="43.22135" lon="5.46394">
        <ele>477</ele>
        <time>2015-02-11T10:20:57Z</time>
      </trkpt>
      <trkpt lat="43.22136" lon="5.46394">
        <ele>476.8</ele>
        <time>2015-02-11T10:20:58Z</time>
      </trkpt>
      <trkpt lat="43.22169" lon="5.46395">
        <ele>462.7</ele>
        <time>2015-02-11T10:22:04Z</time>
      </trkpt>
      <trkpt lat="43.2217" lon="5.46395">
        <ele>462.8</ele>
        <time>2015-02-11T10:22:05Z</time>
      </trkpt>
      <trkpt lat="43.22205" lon="5.46396">
        <ele>449.2</ele>
        <time>2015-02-11T10:23:05Z</time>
      </trkpt>
      <trkpt lat="43.22205" lon="5.46396">
        <ele>449</ele>
        <time>2015-02-11T10:23:06Z</time>
      </trkpt>
      <trkpt lat="43.22238" lon="5.46393">
        <ele>440.2</ele>
        <time>2015-02-11T10:24:11Z</time>
      </trkpt>
      <trkpt lat="43.22239" lon="5.46393">
        <ele>440.3</ele>
        <time>2015-02-11T10:24:12Z</time>
      </trkpt>
      <trkpt lat="43.2227" lon="5.46408">
        <ele>431.2</ele>
        <time>2015-02-11T10:25:33Z</time>
      </trkpt>
      <trkpt lat="43.22271" lon="5.46409">
        <ele>431.2</ele>
        <time>2015-02-11T10:25:34Z</time>
      </trkpt>
      <trkpt lat="43.22299" lon="5.46431">
        <ele>417.1</ele>
        <time>2015-02-11T10:26:13Z</time>
      </trkpt>
      <trkpt lat="43.22313" lon="5.46445">
        <ele>413.7</ele>
        <time>2015-02-11T10:26:29Z</time>
      </trkpt>
      <trkpt lat="43.22326" lon="5.46455">
        <ele>411.5</ele>
        <time>2015-02-11T10:26:59Z</time>
      </trkpt>
      <trkpt lat="43.22329" lon="5.46456">
        <ele>410.8</ele>
        <time>2015-02-11T10:27:00Z</time>
      </trkpt>
      <trkpt lat="43.22354" lon="5.46485">
        <ele>409.5</ele>
        <time>2015-02-11T10:27:44Z</time>
      </trkpt>
      <trkpt lat="43.22369" lon="5.46497">
        <ele>402.5</ele>
        <time>2015-02-11T10:28:34Z</time>
      </trkpt>
      <trkpt lat="43.2237" lon="5.46497">
        <ele>402.5</ele>
        <time>2015-02-11T10:28:35Z</time>
      </trkpt>
      <trkpt lat="43.22383" lon="5.46513">
        <ele>400.8</ele>
        <time>2015-02-11T10:33:17Z</time>
      </trkpt>
      <trkpt lat="43.22409" lon="5.46544">
        <ele>398.3</ele>
        <time>2015-02-11T10:33:58Z</time>
      </trkpt>
      <trkpt lat="43.22419" lon="5.46563">
        <ele>394.2</ele>
        <time>2015-02-11T10:34:22Z</time>
      </trkpt>
      <trkpt lat="43.22419" lon="5.46565">
        <ele>394.7</ele>
        <time>2015-02-11T10:34:23Z</time>
      </trkpt>
      <trkpt lat="43.22443" lon="5.46597">
        <ele>389.2</ele>
        <time>2015-02-11T10:35:33Z</time>
      </trkpt>
      <trkpt lat="43.22443" lon="5.46598">
        <ele>389.1</ele>
        <time>2015-02-11T10:35:34Z</time>
      </trkpt>
      <trkpt lat="43.22472" lon="5.46621">
        <ele>376.7</ele>
        <time>2015-02-11T10:40:14Z</time>
      </trkpt>
      <trkpt lat="43.22473" lon="5.46621">
        <ele>376.2</ele>
        <time>2015-02-11T10:40:15Z</time>
      </trkpt>
      <trkpt lat="43.22486" lon="5.46636">
        <ele>403.7</ele>
        <time>2015-02-11T10:43:43Z</time>
      </trkpt>
      <trkpt lat="43.22491" lon="5.4666">
        <ele>392.5</ele>
        <time>2015-02-11T10:52:46Z</time>
      </trkpt>
      <trkpt lat="43.22523" lon="5.46667">
        <ele>375.3</ele>
        <time>2015-02-11T10:53:37Z</time>
      </trkpt>
      <trkpt lat="43.22524" lon="5.46691">
        <ele>347</ele>
        <time>2015-02-11T10:54:14Z</time>
      </trkpt>
      <trkpt lat="43.22524" lon="5.46692">
        <ele>346.5</ele>
        <time>2015-02-11T10:54:15Z</time>
      </trkpt>
      <trkpt lat="43.22542" lon="5.46718">
        <ele>323.8</ele>
        <time>2015-02-11T10:56:46Z</time>
      </trkpt>
      <trkpt lat="43.22543" lon="5.46718">
        <ele>323.6</ele>
        <time>2015-02-11T10:56:47Z</time>
      </trkpt>
      <trkpt lat="43.22572" lon="5.46741">
        <ele>324.2</ele>
        <time>2015-02-11T10:57:20Z</time>
      </trkpt>
      <trkpt lat="43.22582" lon="5.46761">
        <ele>321.2</ele>
        <time>2015-02-11T10:58:16Z</time>
      </trkpt>
      <trkpt lat="43.22583" lon="5.46761">
        <ele>321.6</ele>
        <time>2015-02-11T10:58:17Z</time>
      </trkpt>
      <trkpt lat="43.22615" lon="5.46778">
        <ele>320.6</ele>
        <time>2015-02-11T10:59:00Z</time>
      </trkpt>
      <trkpt lat="43.22631" lon="5.46781">
        <ele>314.3</ele>
        <time>2015-02-11T10:59:16Z</time>
      </trkpt>
      <trkpt lat="43.22647" lon="5.46774">
        <ele>303</ele>
        <time>2015-02-11T10:59:33Z</time>
      </trkpt>
      <trkpt lat="43.22649" lon="5.46774">
        <ele>303.7</ele>
        <time>2015-02-11T10:59:34Z</time>
      </trkpt>
      <trkpt lat="43.22681" lon="5.4679">
        <ele>302.2</ele>
        <time>2015-02-11T11:00:26Z</time>
      </trkpt>
      <trkpt lat="43.22698" lon="5.46791">
        <ele>301.7</ele>
        <time>2015-02-11T11:00:43Z</time>
      </trkpt>
      <trkpt lat="43.22699" lon="5.46791">
        <ele>302.1</ele>
        <time>2015-02-11T11:00:44Z</time>
      </trkpt>
    </trkseg>
  </trk>
</gpx>